sensor_id;sensor_type;location;lat;lon;timestamp;pressure;altitude;pressure_sealevel;temperature;humidity
48872;BME280;36154;51.674;7.824;2022-12-07T00:00:46;100760.72;;;19.70;46.12
48872;BME280;36154;51.674;7.824;2022-12-07T00:03:11;100761.59;;;19.69;46.07
48872;BME280;36154;51.674;7.824;2022-12-07T00:05:36;100759.00;;;19.69;46.16
48872;BME280;36154;51.674;7.824;2022-12-07T00:08:02;100765.91;;;19.68;46.08
48872;BME280;36154;51.674;7.824;2022-12-07T00:10:27;100764.16;;;19.69;46.05
48872;BME280;36154;51.674;7.824;2022-12-07T00:12:52;100765.03;;;19.68;46.15
48872;BME280;36154;51.674;7.824;2022-12-07T00:15:18;100763.38;;;19.67;46.10
48872;BME280;36154;51.674;7.824;2022-12-07T00:17:45;100776.28;;;19.67;46.03
48872;BME280;36154;51.674;7.824;2022-12-07T00:20:10;100771.97;;;19.67;46.03
48872;BME280;36154;51.674;7.824;2022-12-07T00:22:36;100754.78;;;19.66;46.14
48872;BME280;36154;51.674;7.824;2022-12-07T00:25:01;100758.19;;;19.67;46.14
48872;BME280;36154;51.674;7.824;2022-12-07T00:27:27;100766.81;;;19.66;45.96
48872;BME280;36154;51.674;7.824;2022-12-07T00:29:52;100759.06;;;19.66;45.99
48872;BME280;36154;51.674;7.824;2022-12-07T00:32:17;100749.63;;;19.65;46.09
48872;BME280;36154;51.674;7.824;2022-12-07T00:34:43;100751.31;;;19.66;46.11
48872;BME280;36154;51.674;7.824;2022-12-07T00:37:08;100753.09;;;19.64;46.17
48872;BME280;36154;51.674;7.824;2022-12-07T00:39:33;100753.09;;;19.64;46.06
48872;BME280;36154;51.674;7.824;2022-12-07T00:41:58;100747.91;;;19.64;46.01
48872;BME280;36154;51.674;7.824;2022-12-07T00:44:24;100747.91;;;19.64;46.14
48872;BME280;36154;51.674;7.824;2022-12-07T00:46:49;100759.13;;;19.63;45.97
48872;BME280;36154;51.674;7.824;2022-12-07T00:49:14;100746.22;;;19.63;45.96
48872;BME280;36154;51.674;7.824;2022-12-07T00:51:40;100740.16;;;19.62;46.06
48872;BME280;36154;51.674;7.824;2022-12-07T00:54:05;100739.34;;;19.62;46.15
48872;BME280;36154;51.674;7.824;2022-12-07T00:56:30;100749.66;;;19.62;46.56
48872;BME280;36154;51.674;7.824;2022-12-07T00:59:03;100744.50;;;19.62;46.00
48872;BME280;36154;51.674;7.824;2022-12-07T01:01:34;100739.34;;;19.62;45.89
48872;BME280;36154;51.674;7.824;2022-12-07T01:04:00;100733.28;;;19.61;46.13
48872;BME280;36154;51.674;7.824;2022-12-07T01:06:29;100735.94;;;19.60;45.93
48872;BME280;36154;51.674;7.824;2022-12-07T01:08:54;100733.34;;;19.60;45.93
48872;BME280;36154;51.674;7.824;2022-12-07T01:11:23;100737.63;;;19.61;46.15
48872;BME280;36154;51.674;7.824;2022-12-07T01:13:54;100732.44;;;19.61;46.18
48872;BME280;36154;51.674;7.824;2022-12-07T01:16:21;100730.78;;;19.60;45.98
48872;BME280;36154;51.674;7.824;2022-12-07T01:18:49;100729.06;;;19.58;46.22
48872;BME280;36154;51.674;7.824;2022-12-07T01:21:17;100730.78;;;19.60;46.15
48872;BME280;36154;51.674;7.824;2022-12-07T01:23:43;100734.22;;;19.58;45.90
48872;BME280;36154;51.674;7.824;2022-12-07T01:26:15;100732.47;;;19.59;46.01
48872;BME280;36154;51.674;7.824;2022-12-07T01:28:42;100731.66;;;19.58;45.94
48872;BME280;36154;51.674;7.824;2022-12-07T01:31:10;100734.22;;;19.58;45.97
48872;BME280;36154;51.674;7.824;2022-12-07T01:33:47;100738.56;;;19.58;45.95
48872;BME280;36154;51.674;7.824;2022-12-07T01:36:16;100736.00;;;19.56;45.94
48872;BME280;36154;51.674;7.824;2022-12-07T01:38:42;100735.97;;;19.58;46.02
48872;BME280;36154;51.674;7.824;2022-12-07T01:41:08;100743.75;;;19.56;46.15
48872;BME280;36154;51.674;7.824;2022-12-07T01:43:34;100734.28;;;19.55;46.11
48872;BME280;36154;51.674;7.824;2022-12-07T01:46:00;100725.66;;;19.56;46.09
48872;BME280;36154;51.674;7.824;2022-12-07T01:48:46;100731.72;;;19.55;46.01
48872;BME280;36154;51.674;7.824;2022-12-07T01:51:13;100734.28;;;19.55;45.93
48872;BME280;36154;51.674;7.824;2022-12-07T01:53:43;100745.47;;;19.56;46.30
48872;BME280;36154;51.674;7.824;2022-12-07T01:56:12;100742.03;;;19.55;45.98
48872;BME280;36154;51.674;7.824;2022-12-07T01:58:42;100742.91;;;19.54;46.02
48872;BME280;36154;51.674;7.824;2022-12-07T02:01:08;100750.63;;;19.56;46.26
48872;BME280;36154;51.674;7.824;2022-12-07T02:03:39;100728.28;;;19.55;46.06
48872;BME280;36154;51.674;7.824;2022-12-07T02:06:06;100733.44;;;19.55;45.93
48872;BME280;36154;51.674;7.824;2022-12-07T02:08:33;100743.81;;;19.53;45.97
48872;BME280;36154;51.674;7.824;2022-12-07T02:10:59;100730.91;;;19.53;46.00
48872;BME280;36154;51.674;7.824;2022-12-07T02:13:28;100724.03;;;19.52;45.98
48872;BME280;36154;51.674;7.824;2022-12-07T02:19:32;100727.50;;;19.51;46.12
48872;BME280;36154;51.674;7.824;2022-12-07T02:25:32;100724.97;;;19.50;45.99
48872;BME280;36154;51.674;7.824;2022-12-07T02:28:12;100724.97;;;19.50;46.03
48872;BME280;36154;51.674;7.824;2022-12-07T02:30:46;100719.78;;;19.50;45.96
48872;BME280;36154;51.674;7.824;2022-12-07T02:33:17;100724.09;;;19.49;45.96
48872;BME280;36154;51.674;7.824;2022-12-07T02:36:04;100724.97;;;19.50;46.15
48872;BME280;36154;51.674;7.824;2022-12-07T02:38:38;100727.53;;;19.50;46.07
48872;BME280;36154;51.674;7.824;2022-12-07T02:41:12;100731.88;;;19.48;46.09
48872;BME280;36154;51.674;7.824;2022-12-07T02:43:53;100732.75;;;19.48;45.90
48872;BME280;36154;51.674;7.824;2022-12-07T02:46:23;100745.66;;;19.48;46.03
48872;BME280;36154;51.674;7.824;2022-12-07T02:48:51;100743.09;;;19.48;46.07
48872;BME280;36154;51.674;7.824;2022-12-07T02:51:18;100743.09;;;19.48;45.99
48872;BME280;36154;51.674;7.824;2022-12-07T02:53:44;100722.41;;;19.48;45.98
48872;BME280;36154;51.674;7.824;2022-12-07T03:07:00;100720.69;;;19.47;45.96
48872;BME280;36154;51.674;7.824;2022-12-07T03:09:36;100739.69;;;19.46;46.05
48872;BME280;36154;51.674;7.824;2022-12-07T03:14:42;100734.53;;;19.46;45.90
48872;BME280;36154;51.674;7.824;2022-12-07T03:17:14;100734.53;;;19.46;45.86
48872;BME280;36154;51.674;7.824;2022-12-07T03:19:43;100729.34;;;19.46;46.00
48872;BME280;36154;51.674;7.824;2022-12-07T03:22:12;100719.00;;;19.46;46.01
48872;BME280;36154;51.674;7.824;2022-12-07T03:24:45;100740.53;;;19.47;46.07
48872;BME280;36154;51.674;7.824;2022-12-07T03:27:16;100722.44;;;19.47;45.90
48872;BME280;36154;51.674;7.824;2022-12-07T03:29:47;100724.22;;;19.45;45.85
48872;BME280;36154;51.674;7.824;2022-12-07T03:32:20;100727.63;;;19.45;45.88
48872;BME280;36154;51.674;7.824;2022-12-07T03:35:00;100725.06;;;19.45;46.01
48872;BME280;36154;51.674;7.824;2022-12-07T03:37:34;100724.22;;;19.45;45.96
48872;BME280;36154;51.674;7.824;2022-12-07T03:40:11;100722.47;;;19.45;46.01
48872;BME280;36154;51.674;7.824;2022-12-07T03:42:39;100713.88;;;19.45;45.98
48872;BME280;36154;51.674;7.824;2022-12-07T03:45:05;100712.13;;;19.45;45.99
48872;BME280;36154;51.674;7.824;2022-12-07T03:48:08;100724.22;;;19.45;45.88
48872;BME280;36154;51.674;7.824;2022-12-07T03:50:50;100715.59;;;19.44;46.00
48872;BME280;36154;51.674;7.824;2022-12-07T03:53:38;100718.22;;;19.43;45.88
48872;BME280;36154;51.674;7.824;2022-12-07T03:56:06;100724.25;;;19.43;46.05
48872;BME280;36154;51.674;7.824;2022-12-07T03:58:33;100708.75;;;19.43;46.04
48872;BME280;36154;51.674;7.824;2022-12-07T04:00:59;100708.75;;;19.43;45.81
48872;BME280;36154;51.674;7.824;2022-12-07T04:03:24;100707.03;;;19.42;45.80
48872;BME280;36154;51.674;7.824;2022-12-07T04:05:50;100702.72;;;19.43;45.85
48872;BME280;36154;51.674;7.824;2022-12-07T04:08:15;100707.03;;;19.42;46.08
48872;BME280;36154;51.674;7.824;2022-12-07T04:10:40;100707.00;;;19.44;46.10
48872;BME280;36154;51.674;7.824;2022-12-07T04:13:06;100701.81;;;19.45;46.08
48872;BME280;36154;51.674;7.824;2022-12-07T04:15:31;100700.88;;;19.48;46.07
48872;BME280;36154;51.674;7.824;2022-12-07T04:17:59;100705.97;;;19.51;46.11
48872;BME280;36154;51.674;7.824;2022-12-07T04:20:24;100710.22;;;19.53;45.98
48872;BME280;36154;51.674;7.824;2022-12-07T04:22:50;100705.00;;;19.56;45.86
48872;BME280;36154;51.674;7.824;2022-12-07T04:25:15;100716.94;;;19.61;46.16
48872;BME280;36154;51.674;7.824;2022-12-07T04:27:40;100713.47;;;19.62;46.10
48872;BME280;36154;51.674;7.824;2022-12-07T04:30:06;100702.25;;;19.64;46.00
48872;BME280;36154;51.674;7.824;2022-12-07T04:32:31;100712.53;;;19.66;46.10
48872;BME280;36154;51.674;7.824;2022-12-07T04:34:57;100713.34;;;19.68;46.03
48872;BME280;36154;51.674;7.824;2022-12-07T04:37:22;100713.28;;;19.71;45.88
48872;BME280;36154;51.674;7.824;2022-12-07T04:39:49;100712.38;;;19.73;45.99
48872;BME280;36154;51.674;7.824;2022-12-07T04:42:14;100719.19;;;19.76;45.94
48872;BME280;36154;51.674;7.824;2022-12-07T04:44:39;100707.91;;;19.80;46.01
48872;BME280;36154;51.674;7.824;2022-12-07T04:47:05;100719.06;;;19.82;45.98
48872;BME280;36154;51.674;7.824;2022-12-07T04:49:30;100716.38;;;19.85;45.89
48872;BME280;36154;51.674;7.824;2022-12-07T04:51:56;100725.81;;;19.86;45.83
48872;BME280;36154;51.674;7.824;2022-12-07T04:54:21;100717.16;;;19.89;45.67
48872;BME280;36154;51.674;7.824;2022-12-07T04:56:47;100722.25;;;19.92;45.85
48872;BME280;36154;51.674;7.824;2022-12-07T04:59:14;100723.88;;;19.96;45.91
48872;BME280;36154;51.674;7.824;2022-12-07T05:01:40;100718.66;;;19.98;45.72
48872;BME280;36154;51.674;7.824;2022-12-07T05:04:05;100716.00;;;20.01;45.67
48872;BME280;36154;51.674;7.824;2022-12-07T05:06:31;100707.38;;;20.02;45.72
48872;BME280;36154;51.674;7.824;2022-12-07T05:08:56;100712.47;;;20.05;45.70
48872;BME280;36154;51.674;7.824;2022-12-07T05:11:21;100717.53;;;20.08;45.60
48872;BME280;36154;51.674;7.824;2022-12-07T05:14:08;100714.91;;;20.09;45.66
48872;BME280;36154;51.674;7.824;2022-12-07T05:16:34;100712.28;;;20.11;45.37
48872;BME280;36154;51.674;7.824;2022-12-07T05:18:59;100717.38;;;20.14;45.67
48872;BME280;36154;51.674;7.824;2022-12-07T05:21:24;100719.09;;;20.15;45.66
48872;BME280;36154;51.674;7.824;2022-12-07T05:23:50;100721.59;;;20.18;45.64
48872;BME280;36154;51.674;7.824;2022-12-07T05:26:15;100719.88;;;20.19;45.50
48872;BME280;36154;51.674;7.824;2022-12-07T05:28:43;100723.25;;;20.21;45.85
48872;BME280;36154;51.674;7.824;2022-12-07T05:31:09;100715.47;;;20.22;45.53
48872;BME280;36154;51.674;7.824;2022-12-07T05:33:34;100716.25;;;20.24;45.51
48872;BME280;36154;51.674;7.824;2022-12-07T05:36:00;100717.97;;;20.25;45.55
48872;BME280;36154;51.674;7.824;2022-12-07T05:38:30;100719.59;;;20.28;45.36
48872;BME280;36154;51.674;7.824;2022-12-07T05:41:00;100719.56;;;20.29;45.26
48872;BME280;36154;51.674;7.824;2022-12-07T05:43:26;100722.97;;;20.31;45.39
48872;BME280;36154;51.674;7.824;2022-12-07T05:45:51;100716.91;;;20.33;45.28
48872;BME280;36154;51.674;7.824;2022-12-07T05:48:16;100717.75;;;20.33;45.39
48872;BME280;36154;51.674;7.824;2022-12-07T05:50:42;100718.63;;;20.34;45.32
48872;BME280;36154;51.674;7.824;2022-12-07T05:53:07;100710.84;;;20.34;45.35
48872;BME280;36154;51.674;7.824;2022-12-07T05:55:32;100712.56;;;20.33;45.30
48872;BME280;36154;51.674;7.824;2022-12-07T05:57:57;100709.16;;;20.33;45.03
48872;BME280;36154;51.674;7.824;2022-12-07T06:00:41;100710.03;;;20.31;45.12
48872;BME280;36154;51.674;7.824;2022-12-07T06:03:07;100703.16;;;20.30;45.21
48872;BME280;36154;51.674;7.824;2022-12-07T06:05:32;100706.59;;;20.31;45.26
48872;BME280;36154;51.674;7.824;2022-12-07T06:07:57;100696.28;;;20.29;45.25
48872;BME280;36154;51.674;7.824;2022-12-07T06:10:22;100694.59;;;20.28;45.16
48872;BME280;36154;51.674;7.824;2022-12-07T06:12:48;100698.06;;;20.27;45.07
48872;BME280;36154;51.674;7.824;2022-12-07T06:15:13;100703.25;;;20.27;45.17
48872;BME280;36154;51.674;7.824;2022-12-07T06:17:39;100704.13;;;20.26;45.28
48872;BME280;36154;51.674;7.824;2022-12-07T06:20:05;100699.84;;;20.25;45.20
48872;BME280;36154;51.674;7.824;2022-12-07T06:22:31;100711.09;;;20.24;44.90
48872;BME280;36154;51.674;7.824;2022-12-07T06:24:56;100710.28;;;20.22;45.25
48872;BME280;36154;51.674;7.824;2022-12-07T06:27:21;100713.75;;;20.21;45.29
48872;BME280;36154;51.674;7.824;2022-12-07T06:29:47;100711.19;;;20.20;45.30
48872;BME280;36154;51.674;7.824;2022-12-07T06:32:12;100708.66;;;20.18;45.30
48872;BME280;36154;51.674;7.824;2022-12-07T06:34:37;100708.66;;;20.18;45.36
48872;BME280;36154;51.674;7.824;2022-12-07T06:37:03;100713.03;;;20.16;45.47
48872;BME280;36154;51.674;7.824;2022-12-07T06:39:28;100710.44;;;20.16;45.22
48872;BME280;36154;51.674;7.824;2022-12-07T06:41:54;100713.94;;;20.15;45.44
48872;BME280;36154;51.674;7.824;2022-12-07T06:44:21;100713.06;;;20.15;45.30
48872;BME280;36154;51.674;7.824;2022-12-07T06:46:47;100716.56;;;20.13;45.39
48872;BME280;36154;51.674;7.824;2022-12-07T06:49:13;100727.75;;;20.14;45.28
48872;BME280;36154;51.674;7.824;2022-12-07T06:51:38;100726.94;;;20.12;45.23
48872;BME280;36154;51.674;7.824;2022-12-07T06:54:07;100722.63;;;20.11;45.30
48872;BME280;36154;51.674;7.824;2022-12-07T06:56:33;100726.97;;;20.10;45.43
48872;BME280;36154;51.674;7.824;2022-12-07T06:58:58;100724.41;;;20.09;45.59
48872;BME280;36154;51.674;7.824;2022-12-07T07:01:24;100728.75;;;20.08;45.29
48872;BME280;36154;51.674;7.824;2022-12-07T07:03:49;100718.44;;;20.07;45.37
48872;BME280;36154;51.674;7.824;2022-12-07T07:06:14;100721.91;;;20.06;45.31
48872;BME280;36154;51.674;7.824;2022-12-07T07:08:40;100732.28;;;20.04;45.29
48872;BME280;36154;51.674;7.824;2022-12-07T07:11:07;100727.16;;;20.03;45.33
48872;BME280;36154;51.674;7.824;2022-12-07T07:13:33;100723.72;;;20.02;45.31
48872;BME280;36154;51.674;7.824;2022-12-07T07:15:58;100727.19;;;20.01;45.30
48872;BME280;36154;51.674;7.824;2022-12-07T07:18:24;100733.22;;;20.02;45.34
48872;BME280;36154;51.674;7.824;2022-12-07T07:20:51;100720.31;;;20.02;45.39
48872;BME280;36154;51.674;7.824;2022-12-07T07:23:16;100724.56;;;20.03;45.43
48872;BME280;36154;51.674;7.824;2022-12-07T07:25:42;100723.63;;;20.07;45.45
48872;BME280;36154;51.674;7.824;2022-12-07T07:28:07;100723.59;;;20.08;45.42
48872;BME280;36154;51.674;7.824;2022-12-07T07:30:32;100727.81;;;20.11;45.45
48872;BME280;36154;51.674;7.824;2022-12-07T07:32:59;100724.34;;;20.12;45.56
48872;BME280;36154;51.674;7.824;2022-12-07T07:35:30;100729.44;;;20.15;45.57
48872;BME280;36154;51.674;7.824;2022-12-07T07:37:56;100736.31;;;20.16;45.51
48872;BME280;36154;51.674;7.824;2022-12-07T07:40:22;100733.63;;;20.19;45.57
48872;BME280;36154;51.674;7.824;2022-12-07T07:42:49;100736.19;;;20.21;45.42
48872;BME280;36154;51.674;7.824;2022-12-07T07:45:15;100733.56;;;20.22;45.40
48872;BME280;36154;51.674;7.824;2022-12-07T07:47:40;100736.06;;;20.25;45.43
48872;BME280;36154;51.674;7.824;2022-12-07T07:50:06;100729.13;;;20.27;45.47
48872;BME280;36154;51.674;7.824;2022-12-07T07:52:31;100740.28;;;20.29;45.43
48872;BME280;36154;51.674;7.824;2022-12-07T07:54:57;100739.41;;;20.30;45.41
48872;BME280;36154;51.674;7.824;2022-12-07T07:57:22;100741.06;;;20.31;45.43
48872;BME280;36154;51.674;7.824;2022-12-07T07:59:48;100742.78;;;20.33;45.45
48872;BME280;36154;51.674;7.824;2022-12-07T08:02:15;100741.00;;;20.35;45.35
48872;BME280;36154;51.674;7.824;2022-12-07T08:04:40;100752.22;;;20.35;45.54
48872;BME280;36154;51.674;7.824;2022-12-07T08:07:06;100741.84;;;20.37;45.46
48872;BME280;36154;51.674;7.824;2022-12-07T08:09:31;100741.75;;;20.38;45.29
48872;BME280;36154;51.674;7.824;2022-12-07T08:11:57;100746.03;;;20.41;45.26
48872;BME280;36154;51.674;7.824;2022-12-07T08:14:22;100746.88;;;20.41;45.28
48872;BME280;36154;51.674;7.824;2022-12-07T08:16:48;100744.22;;;20.43;45.08
48872;BME280;36154;51.674;7.824;2022-12-07T08:19:13;100751.13;;;20.44;45.20
48872;BME280;36154;51.674;7.824;2022-12-07T08:21:38;100751.97;;;20.44;45.27
48872;BME280;36154;51.674;7.824;2022-12-07T08:24:04;100749.34;;;20.46;45.20
48872;BME280;36154;51.674;7.824;2022-12-07T08:26:29;100743.31;;;20.45;45.12
48872;BME280;36154;51.674;7.824;2022-12-07T08:28:54;100748.53;;;20.44;45.12
48872;BME280;36154;51.674;7.824;2022-12-07T08:31:20;100748.53;;;20.44;45.15
48872;BME280;36154;51.674;7.824;2022-12-07T08:33:47;100749.41;;;20.43;45.11
48872;BME280;36154;51.674;7.824;2022-12-07T08:36:13;100752.00;;;20.43;45.01
48872;BME280;36154;51.674;7.824;2022-12-07T08:38:40;100745.19;;;20.40;45.10
48872;BME280;36154;51.674;7.824;2022-12-07T08:41:09;100746.03;;;20.41;44.85
48872;BME280;36154;51.674;7.824;2022-12-07T08:43:35;100744.31;;;20.40;45.11
48872;BME280;36154;51.674;7.824;2022-12-07T08:48:39;100756.44;;;20.38;45.19
48872;BME280;36154;51.674;7.824;2022-12-07T08:51:06;100754.78;;;20.37;45.36
48872;BME280;36154;51.674;7.824;2022-12-07T08:53:32;100753.06;;;20.36;45.48
48872;BME280;36154;51.674;7.824;2022-12-07T08:55:58;100757.41;;;20.35;45.25
48872;BME280;36154;51.674;7.824;2022-12-07T08:58:23;100747.91;;;20.34;45.26
48872;BME280;36154;51.674;7.824;2022-12-07T09:00:49;100751.38;;;20.33;44.97
48872;BME280;36154;51.674;7.824;2022-12-07T09:03:14;100748.03;;;20.29;45.11
48872;BME280;36154;51.674;7.824;2022-12-07T09:05:39;100749.75;;;20.30;45.42
48872;BME280;36154;51.674;7.824;2022-12-07T09:08:05;100751.50;;;20.30;45.23
48872;BME280;36154;51.674;7.824;2022-12-07T09:10:31;100747.22;;;20.27;45.46
48872;BME280;36154;51.674;7.824;2022-12-07T09:12:57;100749.81;;;20.27;45.36
48872;BME280;36154;51.674;7.824;2022-12-07T09:15:26;100749.81;;;20.27;45.51
48872;BME280;36154;51.674;7.824;2022-12-07T09:17:52;100753.28;;;20.26;45.46
48872;BME280;36154;51.674;7.824;2022-12-07T09:20:17;100753.28;;;20.26;45.25
48872;BME280;36154;51.674;7.824;2022-12-07T09:22:43;100755.91;;;20.25;45.39
48872;BME280;36154;51.674;7.824;2022-12-07T09:25:08;100749.00;;;20.25;45.34
48872;BME280;36154;51.674;7.824;2022-12-07T09:27:33;100749.06;;;20.24;45.26
48872;BME280;36154;51.674;7.824;2022-12-07T09:29:59;100756.00;;;20.22;45.39
48872;BME280;36154;51.674;7.824;2022-12-07T09:32:24;100751.72;;;20.21;45.41
48872;BME280;36154;51.674;7.824;2022-12-07T09:34:49;100751.75;;;20.19;45.34
48872;BME280;36154;51.674;7.824;2022-12-07T09:37:15;100758.66;;;20.19;45.37
48872;BME280;36154;51.674;7.824;2022-12-07T09:39:40;100750.94;;;20.17;45.33
48872;BME280;36154;51.674;7.824;2022-12-07T09:42:07;100753.53;;;20.17;45.39
48872;BME280;36154;51.674;7.824;2022-12-07T09:44:33;100750.97;;;20.16;45.24
48872;BME280;36154;51.674;7.824;2022-12-07T09:47:00;100750.97;;;20.16;45.23
48872;BME280;36154;51.674;7.824;2022-12-07T09:49:28;100747.59;;;20.13;45.23
48872;BME280;36154;51.674;7.824;2022-12-07T09:52:01;100751.06;;;20.12;45.36
48872;BME280;36154;51.674;7.824;2022-12-07T09:54:29;100746.72;;;20.13;45.68
48872;BME280;36154;51.674;7.824;2022-12-07T09:56:55;100749.34;;;20.11;45.45
48872;BME280;36154;51.674;7.824;2022-12-07T09:59:20;100746.81;;;20.10;45.44
48872;BME280;36154;51.674;7.824;2022-12-07T10:01:49;100739.06;;;20.10;45.47
48872;BME280;36154;51.674;7.824;2022-12-07T10:04:24;100733.06;;;20.08;45.42
48872;BME280;36154;51.674;7.824;2022-12-07T10:06:51;100740.00;;;20.06;45.41
48872;BME280;36154;51.674;7.824;2022-12-07T10:09:18;100734.81;;;20.07;45.44
48872;BME280;36154;51.674;7.824;2022-12-07T10:12:04;100732.28;;;20.04;45.45
48872;BME280;36154;51.674;7.824;2022-12-07T10:14:32;100731.44;;;20.04;45.24
48872;BME280;36154;51.674;7.824;2022-12-07T10:16:57;100729.75;;;20.03;45.38
48872;BME280;36154;51.674;7.824;2022-12-07T10:19:31;100722.88;;;20.02;45.56
48872;BME280;36154;51.674;7.824;2022-12-07T10:24:26;100734.09;;;20.01;45.34
48872;BME280;36154;51.674;7.824;2022-12-07T10:26:52;100728.06;;;20.02;45.47
48872;BME280;36154;51.674;7.824;2022-12-07T10:29:48;100722.81;;;20.05;45.68
48872;BME280;36154;51.674;7.824;2022-12-07T10:34:40;100720.06;;;20.11;45.61
48872;BME280;36154;51.674;7.824;2022-12-07T10:37:26;100715.69;;;20.13;45.74
48872;BME280;36154;51.674;7.824;2022-12-07T10:39:55;100715.66;;;20.15;45.24
48872;BME280;36154;51.674;7.824;2022-12-07T10:42:27;100720.78;;;20.16;45.72
48872;BME280;36154;51.674;7.824;2022-12-07T10:45:09;100724.16;;;20.18;45.46
48872;BME280;36154;51.674;7.824;2022-12-07T11:06:20;100691.88;;;20.33;45.60
48872;BME280;36154;51.674;7.824;2022-12-07T11:11:51;100677.13;;;20.37;45.55
48872;BME280;36154;51.674;7.824;2022-12-07T11:14:30;100678.78;;;20.39;45.58
48872;BME280;36154;51.674;7.824;2022-12-07T11:17:09;100672.69;;;20.42;45.41
48872;BME280;36154;51.674;7.824;2022-12-07T11:28:23;100671.69;;;20.46;45.57
48872;BME280;36154;51.674;7.824;2022-12-07T11:31:00;100675.09;;;20.48;45.49
48872;BME280;36154;51.674;7.824;2022-12-07T11:33:37;100684.59;;;20.49;45.40
48872;BME280;36154;51.674;7.824;2022-12-07T11:36:23;100676.81;;;20.49;45.45
48872;BME280;36154;51.674;7.824;2022-12-07T11:39:04;100684.50;;;20.52;45.33
48872;BME280;36154;51.674;7.824;2022-12-07T11:41:37;100671.56;;;20.52;45.37
48872;BME280;36154;51.674;7.824;2022-12-07T11:44:16;100667.19;;;20.54;45.36
48872;BME280;36154;51.674;7.824;2022-12-07T11:55:36;100658.34;;;20.61;45.37
48872;BME280;36154;51.674;7.824;2022-12-07T11:58:15;100649.66;;;20.64;45.37
48872;BME280;36154;51.674;7.824;2022-12-07T12:00:47;100653.09;;;20.64;45.30
48872;BME280;36154;51.674;7.824;2022-12-07T12:03:21;100647.81;;;20.67;45.33
48872;BME280;36154;51.674;7.824;2022-12-07T12:05:48;100651.22;;;20.70;45.36
48872;BME280;36154;51.674;7.824;2022-12-07T12:08:19;100652.00;;;20.72;45.25
48872;BME280;36154;51.674;7.824;2022-12-07T12:11:00;100641.66;;;20.72;45.30
48872;BME280;36154;51.674;7.824;2022-12-07T12:21:53;100645.06;;;20.74;45.00
48872;BME280;36154;51.674;7.824;2022-12-07T12:24:22;100647.59;;;20.75;45.17
48872;BME280;36154;51.674;7.824;2022-12-07T12:26:53;100639.75;;;20.77;45.16
48872;BME280;36154;51.674;7.824;2022-12-07T12:29:34;100627.66;;;20.79;45.17
48872;BME280;36154;51.674;7.824;2022-12-07T12:32:13;100618.97;;;20.80;45.10
48872;BME280;36154;51.674;7.824;2022-12-07T12:35:17;100619.84;;;20.80;44.92
48872;BME280;36154;51.674;7.824;2022-12-07T12:37:45;100625.00;;;20.80;45.06
48872;BME280;36154;51.674;7.824;2022-12-07T12:42:55;100612.00;;;20.82;44.96
48872;BME280;36154;51.674;7.824;2022-12-07T12:45:33;100612.81;;;20.84;45.04
48872;BME280;36154;51.674;7.824;2022-12-07T12:50:59;100607.59;;;20.85;44.89
48872;BME280;36154;51.674;7.824;2022-12-07T12:53:24;100604.09;;;20.86;45.05
48872;BME280;36154;51.674;7.824;2022-12-07T12:58:29;100606.63;;;20.88;44.91
48872;BME280;36154;51.674;7.824;2022-12-07T13:03:59;100599.78;;;20.87;44.64
48872;BME280;36154;51.674;7.824;2022-12-07T13:08:50;100605.03;;;20.84;44.85
48872;BME280;36154;51.674;7.824;2022-12-07T13:11:29;100613.69;;;20.83;44.84
48872;BME280;36154;51.674;7.824;2022-12-07T13:16:59;100605.13;;;20.81;45.03
48872;BME280;36154;51.674;7.824;2022-12-07T13:24:56;100591.50;;;20.76;44.83
48872;BME280;36154;51.674;7.824;2022-12-07T13:27:24;100588.94;;;20.74;44.84
48872;BME280;36154;51.674;7.824;2022-12-07T13:29:52;100585.50;;;20.74;44.86
48872;BME280;36154;51.674;7.824;2022-12-07T13:32:24;100589.03;;;20.71;44.71
48872;BME280;36154;51.674;7.824;2022-12-07T13:34:50;100588.19;;;20.71;44.77
48872;BME280;36154;51.674;7.824;2022-12-07T13:37:23;100580.47;;;20.69;44.85
48872;BME280;36154;51.674;7.824;2022-12-07T13:39:57;100577.91;;;20.67;44.97
48872;BME280;36154;51.674;7.824;2022-12-07T13:42:32;100575.41;;;20.64;44.90
48872;BME280;36154;51.674;7.824;2022-12-07T13:45:01;100576.38;;;20.62;45.01
48872;BME280;36154;51.674;7.824;2022-12-07T13:47:48;100573.91;;;20.57;45.07
48872;BME280;36154;51.674;7.824;2022-12-07T13:50:25;100574.84;;;20.55;45.13
48872;BME280;36154;51.674;7.824;2022-12-07T13:52:55;100574.88;;;20.53;45.13
48872;BME280;36154;51.674;7.824;2022-12-07T13:55:20;100574.06;;;20.53;45.12
48872;BME280;36154;51.674;7.824;2022-12-07T13:57:50;100574.06;;;20.53;45.17
48872;BME280;36154;51.674;7.824;2022-12-07T14:00:19;100563.69;;;20.53;45.06
48872;BME280;36154;51.674;7.824;2022-12-07T14:03:03;100566.31;;;20.51;45.20
48872;BME280;36154;51.674;7.824;2022-12-07T14:05:29;100558.59;;;20.49;45.13
48872;BME280;36154;51.674;7.824;2022-12-07T14:10:30;100557.88;;;20.44;45.08
48872;BME280;36154;51.674;7.824;2022-12-07T14:12:56;100559.56;;;20.47;45.14
48872;BME280;36154;51.674;7.824;2022-12-07T14:15:27;100557.78;;;20.49;45.29
48872;BME280;36154;51.674;7.824;2022-12-07T14:17:54;100550.78;;;20.51;45.34
48872;BME280;36154;51.674;7.824;2022-12-07T14:20:35;100554.19;;;20.53;45.35
48872;BME280;36154;51.674;7.824;2022-12-07T14:23:02;100560.09;;;20.57;45.33
48872;BME280;36154;51.674;7.824;2022-12-07T14:25:47;100552.31;;;20.58;45.42
48872;BME280;36154;51.674;7.824;2022-12-07T14:28:34;100548.84;;;20.59;45.37
48872;BME280;36154;51.674;7.824;2022-12-07T14:31:00;100541.84;;;20.61;45.27
48872;BME280;36154;51.674;7.824;2022-12-07T14:33:26;100546.16;;;20.62;45.29
48872;BME280;36154;51.674;7.824;2022-12-07T14:35:54;100544.41;;;20.63;45.12
48872;BME280;36154;51.674;7.824;2022-12-07T14:38:21;100546.06;;;20.65;45.28